This is the latest recevied weather packets stored in our database for station/object 9A7DI-13. If no packets are shown the sender has not sent any weather packets the latest 10 day(s).
| Time | Temp. | Humidity | Pressure | Rain* | Wind** | Luminosity | Snow |
|---|---|---|---|---|---|---|---|
| 1788256007 | 27.22° C | 43% | 1030 hPa | - | - | - | - |
| 1788255407 | 27.22° C | 44% | 1029.9 hPa | - | - | - | - |
| 1788254807 | 27.22° C | 44% | 1030 hPa | - | - | - | - |
| 1788254207 | 26.67° C | 45% | 1030 hPa | - | - | - | - |
| 1788253607 | 27.22° C | 45% | 1030.1 hPa | - | - | - | - |
| 1788253007 | 26.67° C | 47% | 1030.1 hPa | - | - | - | - |
| 1788252407 | 26.67° C | 47% | 1030.1 hPa | - | - | - | - |
| 1788251807 | 26.67° C | 48% | 1030.1 hPa | - | - | - | - |
| 1788251207 | 26.11° C | 49% | 1030 hPa | - | - | - | - |
| 1788250607 | 26.11° C | 53% | 1030.1 hPa | - | - | - | - |
| 1788250007 | 26.11° C | 52% | 1030 hPa | - | - | - | - |
| 1788249407 | 25.56° C | 53% | 1030 hPa | - | - | - | - |
| 1788248807 | 24.44° C | 57% | 1030.1 hPa | - | - | - | - |
| 1788248207 | 24.44° C | 57% | 1030.1 hPa | - | - | - | - |
| 1788247607 | 24.44° C | 59% | 1030 hPa | - | - | - | - |
| 1788247007 | 23.89° C | 61% | 1029.9 hPa | - | - | - | - |
| 1788246407 | 22.78° C | 64% | 1029.9 hPa | - | - | - | - |
| 1788245807 | 22.22° C | 64% | 1029.8 hPa | - | - | - | - |
| 1788245207 | 22.78° C | 66% | 1029.6 hPa | - | - | - | - |
| 1788244607 | 22.22° C | 69% | 1029.6 hPa | - | - | - | - |
| 1788244007 | 22.22° C | 70% | 1029.5 hPa | - | - | - | - |
| 1788243407 | 21.11° C | 74% | 1029.4 hPa | - | - | - | - |
| 1788242807 | 20.56° C | 76% | 1029.3 hPa | - | - | - | - |
| 1788242207 | 20.56° C | 78% | 1029.3 hPa | - | - | - | - |
| 1788241607 | 19.44° C | 80% | 1029.1 hPa | - | - | - | - |
* Rain since midnight (hover to see other rain measurements)
** Current wind speed in m/s (hover to see current wind gust speed)